Time;durP1;ratioP1;P1;durP2;ratioP2;P2;SDS_P1;SDS_P2;PMS_P1;PMS_P2;Temp;Humidity;BMP_temperature;BMP_pressure;BME280_temperature;BME280_humidity;BME280_pressure;Samples;Min_cycle;Max_cycle;Signal;HPM_P1;HPM_P2
2022/12/20 00:02:06;;;;;;;43.10;34.70;;;;;;;1.08;75.44;101058.60;107732;1287;22094;-79
2022/12/20 00:04:35;;;;;;;45.90;36.20;;;;;;;1.08;75.45;101053.29;107710;1289;22030;-80
2022/12/20 00:07:04;;;;;;;45.90;37.70;;;;;;;1.08;75.49;101049.00;107823;1286;22422;-79
2022/12/20 00:09:33;;;;;;;45.30;35.50;;;;;;;1.09;75.40;101045.58;107638;1292;21949;-79
2022/12/20 00:12:03;;;;;;;44.30;34.40;;;;;;;1.08;75.38;101044.72;107443;1292;22026;-80
2022/12/20 00:14:32;;;;;;;44.40;34.70;;;;;;;1.10;75.44;101041.16;107487;1287;23080;-79
2022/12/20 00:17:01;;;;;;;47.90;36.10;;;;;;;1.09;75.43;101038.41;107605;1286;23064;-79
2022/12/20 00:19:30;;;;;;;45.10;33.60;;;;;;;1.10;75.47;101043.71;107727;1286;22787;-78
2022/12/20 00:21:58;;;;;;;46.00;36.70;;;;;;;1.10;75.41;101045.95;107674;1290;21920;-79
2022/12/20 00:24:29;;;;;;;44.10;34.90;;;;;;;1.15;75.55;101042.23;107724;1288;21953;-79
2022/12/20 00:26:58;;;;;;;47.10;34.00;;;;;;;1.20;75.54;101036.80;107734;1286;22711;-79
2022/12/20 00:29:27;;;;;;;42.50;33.20;;;;;;;1.24;75.36;101024.52;108073;1283;22096;-79
2022/12/20 00:31:59;;;;;;;;;;;;;;;1.22;75.39;101017.96;108114;1286;23683;-79
2022/12/20 00:34:28;;;;;;;47.80;35.30;;;;;;;1.16;75.50;101023.56;108074;1286;22175;-80
2022/12/20 00:36:57;;;;;;;48.90;35.80;;;;;;;1.16;75.48;101022.88;108154;1285;21946;-80
2022/12/20 00:39:26;;;;;;;47.50;36.40;;;;;;;1.18;75.47;101024.79;108107;1285;21942;-80
2022/12/20 00:41:55;;;;;;;46.20;36.10;;;;;;;1.18;75.42;101028.57;108140;1285;22615;-80
2022/12/20 00:44:31;;;;;;;44.60;35.00;;;;;;;1.19;75.41;101019.98;108207;1286;21943;-80
2022/12/20 00:47:00;;;;;;;44.80;35.40;;;;;;;1.23;75.39;101013.53;108114;1286;22441;-79
2022/12/20 00:49:30;;;;;;;43.70;33.80;;;;;;;1.25;75.37;101010.63;108145;1286;21948;-78
2022/12/20 00:52:00;;;;;;;46.00;34.90;;;;;;;1.27;75.41;101013.23;108082;1286;23625;-78
2022/12/20 00:54:32;;;;;;;45.30;35.60;;;;;;;1.29;75.40;101010.33;108100;1286;21935;-81
2022/12/20 00:57:04;;;;;;;44.30;34.00;;;;;;;1.32;75.34;101007.45;108158;1285;23151;-80
2022/12/20 00:59:33;;;;;;;41.90;34.70;;;;;;;1.35;75.38;101012.45;107681;1292;22339;-80
2022/12/20 01:02:03;;;;;;;43.70;35.40;;;;;;;1.40;75.39;101028.46;107925;1289;22319;-79
2022/12/20 01:04:33;;;;;;;44.50;35.40;;;;;;;1.45;75.28;101034.50;107980;1289;21937;-80
2022/12/20 01:07:06;;;;;;;44.90;35.70;;;;;;;1.50;75.26;101034.73;107034;1297;22015;-80
2022/12/20 01:09:36;;;;;;;44.50;34.80;;;;;;;1.56;75.26;101035.64;107082;1288;21960;-79
2022/12/20 01:12:06;;;;;;;48.70;35.90;;;;;;;1.62;75.22;101037.08;107102;1295;22463;-80
2022/12/20 01:14:36;;;;;;;53.60;36.40;;;;;;;1.66;75.09;101042.09;107154;1294;22489;-80
2022/12/20 01:17:06;;;;;;;42.90;33.60;;;;;;;1.70;75.13;101043.84;107439;1293;22059;-80
2022/12/20 01:19:36;;;;;;;44.50;32.50;;;;;;;1.73;74.99;101040.45;107710;1289;22003;-79
2022/12/20 01:22:05;;;;;;;40.60;30.40;;;;;;;1.73;74.89;101037.88;107199;1295;23648;-79
2022/12/20 01:24:34;;;;;;;42.50;32.10;;;;;;;1.75;74.96;101035.14;106992;1292;23144;-79
2022/12/20 01:27:03;;;;;;;41.70;31.60;;;;;;;1.77;74.92;101025.73;107828;1289;22200;-81
2022/12/20 01:29:33;;;;;;;38.80;31.00;;;;;;;1.81;74.97;101017.86;107936;1292;22011;-79
2022/12/20 01:32:02;;;;;;;33.30;27.60;;;;;;;1.84;74.94;101012.40;107783;1289;23160;-80
2022/12/20 01:34:32;;;;;;;35.00;26.70;;;;;;;1.87;74.91;101004.02;107526;1296;21965;-81
2022/12/20 01:37:04;;;;;;;36.50;27.70;;;;;;;1.89;74.76;100999.40;107091;1300;21960;-81
2022/12/20 01:39:34;;;;;;;32.30;27.60;;;;;;;1.89;74.68;100996.99;107028;1297;22014;-80
2022/12/20 01:42:05;;;;;;;36.00;27.90;;;;;;;1.89;74.76;100991.69;106969;1301;21971;-81
2022/12/20 01:44:34;;;;;;;37.00;28.20;;;;;;;1.91;74.90;100986.71;106828;1301;22288;-82
2022/12/20 01:47:07;;;;;;;35.70;28.00;;;;;;;1.95;74.77;100993.95;107160;1299;21976;-81
2022/12/20 01:49:46;;;;;;;33.00;25.70;;;;;;;1.96;74.74;100993.27;106761;1304;21969;-80
2022/12/20 01:52:35;;;;;;;35.30;26.80;;;;;;;1.97;74.78;100996.19;106878;1297;23365;-82
2022/12/20 01:55:17;;;;;;;36.90;27.30;;;;;;;1.97;74.59;100997.40;107558;1293;22056;-80
2022/12/20 01:57:54;;;;;;;41.30;27.30;;;;;;;1.98;74.60;100987.45;107215;1296;22102;-81
2022/12/20 02:00:23;;;;;;;52.20;30.80;;;;;;;1.99;74.32;100967.02;107330;1297;23790;-80
2022/12/20 02:02:54;;;;;;;35.80;25.50;;;;;;;1.96;74.13;100966.50;107195;1298;23742;-81
2022/12/20 02:05:23;;;;;;;35.30;26.50;;;;;;;1.95;74.25;100979.02;107244;1298;22251;-80
2022/12/20 02:07:55;;;;;;;40.30;28.40;;;;;;;1.98;74.33;100973.55;107126;1296;22080;-80
2022/12/20 02:10:51;;;;;;;38.80;28.20;;;;;;;2.01;74.27;100967.56;107151;1294;22357;-80
2022/12/20 02:14:08;;;;;;;34.20;25.60;;;;;;;1.99;74.06;100967.21;107265;1294;22923;-82
2022/12/20 02:17:31;;;;;;;31.30;25.00;;;;;;;1.99;74.24;100966.86;107202;1294;21956;-81
2022/12/20 02:20:14;;;;;;;28.90;23.60;;;;;;;1.98;74.09;100956.55;106613;1302;22069;-80
2022/12/20 02:22:55;;;;;;;29.80;23.70;;;;;;;2.00;74.10;100946.09;106728;1299;21962;-81
2022/12/20 02:26:19;;;;;;;29.90;25.30;;;;;;;2.02;73.79;100949.20;107182;1298;23923;-81
2022/12/20 02:29:39;;;;;;;31.80;25.80;;;;;;;1.99;73.42;100949.52;106567;1301;21984;-82
2022/12/20 02:32:19;;;;;;;31.00;24.90;;;;;;;1.97;73.41;100944.36;106629;1301;22280;-81
2022/12/20 02:34:49;;;;;;;33.00;25.80;;;;;;;1.96;73.34;100940.92;106613;1301;22002;-80
2022/12/20 02:37:19;;;;;;;29.90;25.30;;;;;;;1.95;73.16;100936.45;105910;1309;22778;-80
2022/12/20 02:39:48;;;;;;;33.60;26.50;;;;;;;1.97;73.15;100931.65;105791;1308;23070;-81
2022/12/20 02:42:24;;;;;;;31.50;26.10;;;;;;;2.00;73.13;100925.16;106051;1307;22061;-81
2022/12/20 02:45:18;;;;;;;35.40;27.90;;;;;;;1.97;72.71;100923.93;105996;1307;22078;-82
2022/12/20 02:48:03;;;;;;;36.10;27.00;;;;;;;1.98;73.04;100922.22;106144;1303;21967;-83
2022/12/20 02:50:45;;;;;;;34.50;27.90;;;;;;;2.01;72.62;100916.06;105994;1307;24365;-83
2022/12/20 02:53:15;;;;;;;34.10;27.40;;;;;;;1.98;72.30;100916.72;105981;1297;23047;-82
2022/12/20 02:56:06;;;;;;;34.60;27.30;;;;;;;2.00;72.38;100903.17;107528;1289;21957;-81
2022/12/20 02:59:13;;;;;;;33.00;26.60;;;;;;;2.01;72.32;100902.67;107508;1289;23680;-81
2022/12/20 03:01:48;;;;;;;31.70;25.40;;;;;;;2.00;72.15;100900.77;107338;1290;23599;-81
2022/12/20 03:04:22;;;;;;;29.70;25.30;;;;;;;1.99;72.09;100896.98;106731;1295;21957;-79
2022/12/20 03:07:13;;;;;;;35.10;26.50;;;;;;;2.01;72.08;100896.66;107155;1294;24470;-80
2022/12/20 03:09:44;;;;;;;31.10;26.20;;;;;;;2.01;71.87;100893.58;107642;1290;23665;-80
2022/12/20 03:12:15;;;;;;;30.10;26.30;;;;;;;2.03;71.84;100897.52;107786;1289;22787;-80
2022/12/20 03:14:44;;;;;;;33.40;27.20;;;;;;;2.04;71.71;100904.41;107822;1286;22359;-80
2022/12/20 03:17:13;;;;;;;33.20;25.60;;;;;;;2.03;71.35;100909.55;107894;1288;22892;-81
2022/12/20 03:19:43;;;;;;;32.70;27.00;;;;;;;2.02;71.45;100905.42;107797;1289;23620;-82
2022/12/20 03:22:12;;;;;;;34.10;26.50;;;;;;;2.03;71.43;100904.91;107967;1287;23689;-80
2022/12/20 03:24:41;;;;;;;32.70;27.20;;;;;;;2.04;71.31;100906.14;107713;1290;23687;-81
2022/12/20 03:27:12;;;;;;;31.90;25.10;;;;;;;2.05;71.27;100903.37;107756;1289;23681;-79
2022/12/20 03:29:41;;;;;;;31.40;26.10;;;;;;;2.05;71.14;100903.38;107784;1288;21929;-78
2022/12/20 03:32:11;;;;;;;32.30;26.80;;;;;;;2.05;71.11;100900.64;107851;1284;21969;-80
2022/12/20 03:34:41;;;;;;;32.20;25.80;;;;;;;2.07;71.05;100898.92;107938;1288;21937;-83
2022/12/20 03:37:11;;;;;;;31.50;25.70;;;;;;;2.07;70.97;100900.14;107807;1286;21957;-80
2022/12/20 03:39:39;;;;;;;32.10;24.70;;;;;;;2.08;70.65;100904.60;108154;1283;21931;-80
2022/12/20 03:42:09;;;;;;;37.40;27.20;;;;;;;2.09;70.72;100905.98;108087;1282;21972;-80
2022/12/20 03:44:38;;;;;;;31.60;24.80;;;;;;;2.10;70.39;100901.52;108147;1282;22571;-80
2022/12/20 03:47:08;;;;;;;33.20;27.10;;;;;;;2.09;70.32;100897.56;108297;1281;22584;-80
2022/12/20 03:49:38;;;;;;;32.20;26.20;;;;;;;2.09;70.44;100897.20;108031;1283;21959;-80
2022/12/20 03:52:11;;;;;;;35.60;26.80;;;;;;;2.12;70.41;100902.21;108756;1282;21948;-80
2022/12/20 03:54:41;;;;;;;33.00;25.60;;;;;;;2.14;70.16;100900.50;107953;1288;21944;-80
2022/12/20 03:57:15;;;;;;;36.40;28.10;;;;;;;2.16;70.12;100895.70;107944;1286;21935;-80
2022/12/20 03:59:45;;;;;;;27.70;24.60;;;;;;;2.18;70.01;100898.64;107894;1285;23651;-81
2022/12/20 04:02:16;;;;;;;31.30;25.10;;;;;;;2.16;69.70;100899.49;107928;1286;23656;-80
2022/12/20 04:04:46;;;;;;;31.10;25.20;;;;;;;2.13;69.63;100898.63;108188;1286;21944;-80
2022/12/20 04:07:16;;;;;;;31.80;24.80;;;;;;;2.10;69.48;100894.99;108188;1285;24374;-81
2022/12/20 04:09:47;;;;;;;32.40;26.50;;;;;;;2.10;69.58;100897.58;108157;1288;22043;-81
2022/12/20 04:12:17;;;;;;;28.60;24.80;;;;;;;2.12;69.64;100906.34;108413;1283;21938;-80
2022/12/20 04:14:47;;;;;;;32.40;26.20;;;;;;;2.16;69.57;100902.25;108431;1283;23835;-80
2022/12/20 04:17:16;;;;;;;30.50;23.70;;;;;;;2.20;69.48;100902.61;108401;1285;21989;-80
2022/12/20 04:19:50;;;;;;;31.90;25.60;;;;;;;2.25;69.37;100906.41;108439;1281;22316;-80
2022/12/20 04:22:20;;;;;;;33.40;24.80;;;;;;;2.26;69.17;100908.46;108144;1283;21940;-79
2022/12/20 04:24:55;;;;;;;36.90;26.90;;;;;;;2.26;69.11;100907.44;108133;1284;23589;-80
2022/12/20 04:27:29;;;;;;;35.70;27.70;;;;;;;2.28;69.18;100908.83;108418;1282;21954;-79
2022/12/20 04:29:59;;;;;;;38.30;29.20;;;;;;;2.29;69.06;100912.44;108422;1282;21937;-80
2022/12/20 04:32:28;;;;;;;35.30;27.60;;;;;;;2.32;69.03;100919.33;108352;1282;22282;-80
2022/12/20 04:34:58;;;;;;;59.20;38.90;;;;;;;2.38;68.92;100931.72;108372;1283;22456;-80
2022/12/20 04:37:27;;;;;;;44.90;33.10;;;;;;;2.38;68.68;100925.89;108436;1280;23071;-80
2022/12/20 04:39:58;;;;;;;46.90;33.10;;;;;;;2.39;68.61;100922.10;108377;1281;21959;-80
2022/12/20 04:42:40;;;;;;;51.60;34.10;;;;;;;2.40;68.56;100917.30;108459;1283;23097;-80
2022/12/20 04:45:11;;;;;;;38.80;30.30;;;;;;;2.40;68.48;100919.36;108372;1283;22630;-79
2022/12/20 04:47:41;;;;;;;36.30;27.30;;;;;;;2.35;68.22;100914.53;107965;1275;23147;-80
2022/12/20 04:50:10;;;;;;;33.00;27.30;;;;;;;2.31;68.08;100912.45;107837;1288;23798;-80
2022/12/20 04:55:29;;;;;;;32.80;27.30;;;;;;;2.24;68.04;100906.92;107166;1294;22453;-80
2022/12/20 04:57:59;;;;;;;38.30;27.50;;;;;;;2.22;67.98;100899.87;107314;1294;22001;-81
2022/12/20 05:00:36;;;;;;;34.50;28.50;;;;;;;2.19;67.78;100897.97;107140;1295;22236;-81
2022/12/20 05:03:11;;;;;;;33.80;28.10;;;;;;;2.17;67.82;100901.90;107407;1293;21962;-80
2022/12/20 05:05:41;;;;;;;43.30;35.20;;;;;;;2.16;67.81;100908.93;107356;1289;22427;-78
2022/12/20 05:08:10;;;;;;;45.40;35.20;;;;;;;2.15;67.80;100915.80;107632;1289;22727;-79
2022/12/20 05:10:40;;;;;;;43.60;35.20;;;;;;;2.13;67.78;100918.71;107839;1284;23703;-80
2022/12/20 05:13:10;;;;;;;37.40;31.60;;;;;;;2.10;67.70;100916.29;108127;1284;22710;-79
2022/12/20 05:15:42;;;;;;;42.90;33.10;;;;;;;2.08;67.61;100909.58;108142;1283;23789;-80
2022/12/20 05:18:12;;;;;;;51.60;37.30;;;;;;;2.07;67.68;100907.85;108147;1283;22402;-79
2022/12/20 05:26:48;;;;;;;80.80;56.70;;;;;;;1.90;67.45;100901.74;107104;1294;22011;-79
2022/12/20 05:29:19;;;;;;;74.00;50.80;;;;;;;1.87;67.58;100899.83;107081;1298;23129;-79
2022/12/20 05:31:49;;;;;;;56.10;43.20;;;;;;;1.86;67.55;100904.81;106590;1297;21958;-79
2022/12/20 05:34:20;;;;;;;60.70;52.80;;;;;;;1.85;67.35;100902.74;106710;1297;24588;-79
2022/12/20 05:36:52;;;;;;;37.40;33.30;;;;;;;1.83;67.36;100894.84;106561;1297;23605;-80
2022/12/20 05:39:23;;;;;;;38.70;32.00;;;;;;;1.83;67.52;100896.02;106716;1298;22114;-79
2022/12/20 05:41:53;;;;;;;39.70;31.90;;;;;;;1.80;67.41;100894.97;106841;1291;23741;-80
2022/12/20 05:44:25;;;;;;;36.30;29.30;;;;;;;1.75;67.30;100904.04;107613;1287;23087;-80
2022/12/20 05:46:56;;;;;;;39.00;32.50;;;;;;;1.73;67.64;100902.65;107800;1283;21967;-79
2022/12/20 05:49:33;;;;;;;43.30;33.10;;;;;;;1.74;67.53;100903.69;108032;1282;22005;-79
2022/12/20 05:52:05;;;;;;;37.40;30.80;;;;;;;1.76;67.35;100909.36;108021;1283;23615;-78
2022/12/20 05:54:40;;;;;;;40.20;31.50;;;;;;;1.78;67.44;100911.27;108125;1281;21952;-79
2022/12/20 05:57:16;;;;;;;40.60;33.90;;;;;;;1.81;67.51;100917.48;107496;1288;21951;-80
2022/12/20 05:59:47;;;;;;;42.70;33.80;;;;;;;1.83;67.39;100912.34;107693;1288;21952;-79
2022/12/20 06:02:20;;;;;;;38.20;30.40;;;;;;;1.85;67.19;100914.92;107477;1287;21956;-81
2022/12/20 06:04:57;;;;;;;35.50;30.10;;;;;;;1.86;67.05;100911.50;107428;1292;23794;-79
2022/12/20 06:07:36;;;;;;;36.70;29.00;;;;;;;1.84;67.05;100907.19;104125;1297;3392955;-80
2022/12/20 06:10:09;;;;;;;35.90;29.00;;;;;;;1.82;66.97;100907.52;106467;1300;23956;-80
2022/12/20 06:12:56;;;;;;;43.00;34.90;;;;;;;1.79;66.89;100908.52;106837;1300;21933;-80
2022/12/20 06:15:57;;;;;;;38.50;28.70;;;;;;;1.80;66.84;100911.63;106770;1297;24068;-79
2022/12/20 06:18:34;;;;;;;34.30;28.90;;;;;;;1.83;66.94;100911.30;107014;1295;21986;-78
2022/12/20 06:21:23;;;;;;;36.40;29.20;;;;;;;1.87;66.88;100910.14;106999;1292;23868;-81
2022/12/20 06:24:02;;;;;;;34.50;28.50;;;;;;;1.90;66.79;100908.09;107537;1289;23747;-80
2022/12/20 06:26:46;;;;;;;43.70;30.90;;;;;;;1.92;66.62;100906.73;108102;1283;24313;-80
2022/12/20 06:29:18;;;;;;;39.40;29.70;;;;;;;1.92;66.59;100908.80;108328;1283;21949;-79
2022/12/20 06:32:14;;;;;;;40.30;31.30;;;;;;;1.89;66.43;100906.21;108382;1283;21942;-81
2022/12/20 06:34:57;;;;;;;39.00;31.40;;;;;;;1.90;66.51;100911.70;107986;1283;21951;-79
2022/12/20 06:37:32;;;;;;;37.10;31.80;;;;;;;1.92;66.51;100912.05;108148;1278;21943;-79
2022/12/20 06:40:08;;;;;;;46.00;35.30;;;;;;;1.98;66.50;100910.88;108450;1282;21964;-79
2022/12/20 06:42:39;;;;;;;45.40;34.70;;;;;;;2.02;66.45;100907.83;108352;1281;23078;-79
2022/12/20 06:45:12;;;;;;;58.20;41.50;;;;;;;2.05;66.35;100910.08;108369;1283;22921;-80
2022/12/20 06:47:55;;;;;;;48.20;35.80;;;;;;;2.06;66.14;100909.91;108274;1283;21947;-80
2022/12/20 06:50:29;;;;;;;50.40;37.90;;;;;;;2.09;66.31;100912.68;108365;1282;21942;-81
2022/12/20 06:53:11;;;;;;;46.60;36.90;;;;;;;2.15;66.21;100917.34;108355;1283;23651;-79
2022/12/20 06:55:52;;;;;;;50.40;39.00;;;;;;;2.15;66.02;100919.41;108406;1282;22003;-79
2022/12/20 06:58:29;;;;;;;47.20;37.20;;;;;;;2.16;66.06;100917.70;108045;1283;22924;-80
2022/12/20 07:01:06;;;;;;;45.70;37.70;;;;;;;2.16;65.90;100913.23;107834;1288;21960;-80
2022/12/20 07:03:46;;;;;;;47.20;36.40;;;;;;;2.17;65.92;100911.00;107653;1287;22099;-80
2022/12/20 07:06:27;;;;;;;58.60;43.30;;;;;;;2.18;65.90;100912.89;107912;1288;21965;-79
2022/12/20 07:09:02;;;;;;;47.90;37.60;;;;;;;2.18;65.88;100913.76;107692;1288;21976;-80
2022/12/20 07:11:41;;;;;;;47.20;36.70;;;;;;;2.19;65.64;100912.22;107677;1287;21961;-80
2022/12/20 07:14:31;;;;;;;;;;;;;;;;;;;;;
2022/12/20 07:17:08;;;;;;;49.20;37.40;;;;;;;2.19;65.75;100911.20;107517;1288;22012;-85
2022/12/20 07:20:11;;;;;;;67.60;52.00;;;;;;;2.17;65.59;100907.40;107697;1288;21957;-83
2022/12/20 07:22:57;;;;;;;49.70;40.50;;;;;;;2.16;65.89;100915.13;107820;1289;22723;-82
2022/12/20 07:26:20;;;;;;;53.90;37.50;;;;;;;2.22;65.73;100918.23;107908;1283;21984;-82
2022/12/20 07:29:05;;;;;;;55.50;38.60;;;;;;;2.23;65.69;100917.73;108318;1283;21907;-80
2022/12/20 07:32:20;;;;;;;;;;;;;;;;;;;;;
2022/12/20 07:35:39;;;;;;;50.30;37.80;;;;;;;2.25;65.65;100914.65;108137;1283;24365;-82
2022/12/20 07:38:37;;;;;;;54.80;41.10;;;;;;;2.28;65.64;100914.84;107791;1289;21945;-80
2022/12/20 07:41:24;;;;;;;56.10;41.40;;;;;;;2.33;65.73;100916.41;108067;1285;21937;-80
2022/12/20 07:44:01;;;;;;;49.40;38.80;;;;;;;2.37;65.57;100912.83;107936;1288;23644;-80
2022/12/20 07:46:44;;;;;;;51.90;39.20;;;;;;;2.41;65.62;100916.63;107713;1287;21952;-78
2022/12/20 07:49:16;;;;;;;46.50;36.50;;;;;;;2.46;65.58;100917.86;107696;1289;23637;-77
2022/12/20 07:51:58;;;;;;;55.30;40.50;;;;;;;2.49;65.54;100916.84;107695;1289;21949;-78
2022/12/20 07:54:35;;;;;;;56.50;41.70;;;;;;;2.59;66.12;100916.52;107711;1288;21961;-77
2022/12/20 07:57:21;;;;;;;58.40;38.40;;;;;;;2.73;66.13;100916.74;107969;1283;23616;-78
2022/12/20 08:00:02;;;;;;;94.60;63.20;;;;;;;2.84;65.67;100913.52;108113;1283;21980;-79
2022/12/20 08:02:55;;;;;;;58.40;42.30;;;;;;;2.86;65.34;100913.02;108367;1283;21986;-79
2022/12/20 08:05:37;;;;;;;58.20;42.10;;;;;;;2.89;65.21;100906.84;108287;1283;21944;-80
2022/12/20 08:08:15;;;;;;;48.30;37.30;;;;;;;2.96;65.11;100903.94;107689;1290;22692;-82
2022/12/20 08:11:01;;;;;;;;;;;;;;;;;;;;;
2022/12/20 08:13:45;;;;;;;46.70;35.80;;;;;;;3.06;64.78;100899.47;107863;1288;22119;-79
2022/12/20 08:16:23;;;;;;;49.90;39.20;;;;;;;3.07;64.38;100905.15;107757;1289;21998;-79
2022/12/20 08:18:56;;;;;;;54.00;39.30;;;;;;;3.10;64.40;100905.17;107279;1294;21986;-79
2022/12/20 08:21:29;;;;;;;49.10;37.00;;;;;;;3.12;64.28;100906.38;107257;1294;21958;-81
2022/12/20 08:24:08;;;;;;;55.50;39.90;;;;;;;3.18;64.28;100907.06;107611;1289;23159;-82
2022/12/20 08:26:47;;;;;;;51.40;38.50;;;;;;;3.20;63.96;100906.73;107674;1286;23094;-83
2022/12/20 08:29:21;;;;;;;51.00;38.00;;;;;;;3.23;63.82;100904.31;107790;1288;21967;-82
2022/12/20 08:32:05;;;;;;;57.90;41.40;;;;;;;3.22;63.33;100901.05;108070;1286;22027;-84
2022/12/20 08:34:37;;;;;;;51.90;38.00;;;;;;;3.18;63.49;100897.42;107595;1289;23157;-82
2022/12/20 08:37:16;;;;;;;64.70;46.40;;;;;;;3.24;63.66;100904.31;105085;1288;3586436;-80
2022/12/20 08:40:00;;;;;;;;;;;;;;;;;;;;;
2022/12/20 08:42:40;;;;;;;71.10;53.40;;;;;;;3.20;62.84;100903.80;107943;1288;22275;-81
2022/12/20 08:45:14;;;;;;;61.60;47.10;;;;;;;3.12;62.80;100906.88;108003;1288;22026;-81
2022/12/20 08:47:48;;;;;;;61.60;49.60;;;;;;;3.09;62.86;100915.65;107697;1288;21974;-80
2022/12/20 08:50:32;;;;;;;74.80;49.20;;;;;;;3.05;62.90;100910.30;107944;1280;22022;-80
2022/12/20 08:53:08;;;;;;;61.70;41.90;;;;;;;2.97;62.81;100910.98;107797;1288;21948;-80
2022/12/20 08:55:41;;;;;;;61.40;44.10;;;;;;;2.95;63.05;100906.67;108203;1283;21936;-80
2022/12/20 08:58:20;;;;;;;73.50;47.10;;;;;;;2.99;63.24;100900.48;108280;1283;21945;-81
2022/12/20 09:00:50;;;;;;;64.90;45.00;;;;;;;3.01;63.14;100897.91;108180;1283;21984;-81
2022/12/20 09:03:37;;;;;;;62.30;43.80;;;;;;;3.05;63.11;100895.34;108308;1283;21994;-80
2022/12/20 09:06:16;;;;;;;59.90;44.10;;;;;;;3.10;63.17;100897.26;108072;1283;21937;-81
2022/12/20 09:08:50;;;;;;;59.90;43.00;;;;;;;3.18;63.36;100895.70;108341;1285;21943;-81
2022/12/20 09:11:29;;;;;;;57.10;41.70;;;;;;;3.29;63.32;100894.88;107892;1287;21998;-80
2022/12/20 09:14:07;;;;;;;51.30;39.00;;;;;;;3.36;63.02;100896.23;107891;1288;21945;-78
2022/12/20 09:16:48;;;;;;;51.90;39.00;;;;;;;3.36;62.88;100893.66;107636;1289;21946;-79
2022/12/20 09:19:31;;;;;;;58.80;43.00;;;;;;;3.34;62.62;100898.64;107988;1288;24305;-79
2022/12/20 09:22:03;;;;;;;57.80;43.20;;;;;;;3.35;62.59;100902.27;107983;1288;21940;-78
2022/12/20 09:24:40;;;;;;;57.10;42.10;;;;;;;3.39;62.66;100906.92;107778;1286;21983;-79
2022/12/20 09:27:25;;;;;;;57.90;42.60;;;;;;;3.45;62.53;100914.67;107183;1294;23688;-78
2022/12/20 09:29:56;;;;;;;60.10;42.80;;;;;;;3.48;62.38;100913.46;107593;1288;21991;-79
2022/12/20 09:32:29;;;;;;;58.80;41.60;;;;;;;3.51;62.21;100922.75;107571;1288;21976;-78
2022/12/20 09:34:59;;;;;;;61.80;45.70;;;;;;;3.55;62.21;100922.58;107751;1289;21973;-79
2022/12/20 09:37:31;;;;;;;57.10;43.50;;;;;;;3.56;62.09;100918.80;107338;1288;22865;-79
2022/12/20 09:40:26;;;;;;;58.60;45.80;;;;;;;3.55;62.04;100917.41;107509;1288;22907;-78
2022/12/20 09:43:01;;;;;;;55.30;43.70;;;;;;;3.55;61.99;100919.31;107498;1288;23666;-79
2022/12/20 09:45:37;;;;;;;57.20;43.60;;;;;;;3.53;61.98;100917.08;107716;1288;21979;-79
2022/12/20 09:48:37;;;;;;;65.00;48.90;;;;;;;3.52;61.94;100915.18;107753;1288;22691;-78
2022/12/20 09:51:13;;;;;;;65.30;50.10;;;;;;;3.53;61.90;100909.84;107518;1274;23073;-79
2022/12/20 09:54:18;;;;;;;62.60;49.50;;;;;;;3.59;62.03;100904.00;108220;1285;21936;-79
2022/12/20 09:57:52;;;;;;;65.40;45.60;;;;;;;3.64;62.22;100900.20;108053;1285;21920;-78
2022/12/20 10:00:25;;;;;;;74.80;51.60;;;;;;;3.73;62.38;100891.77;107885;1283;21988;-78
2022/12/20 10:02:55;;;;;;;68.30;49.30;;;;;;;3.78;61.99;100886.94;107870;1283;21971;-78
2022/12/20 10:05:53;;;;;;;66.90;47.50;;;;;;;3.79;62.10;100885.39;107566;1288;21938;-78
2022/12/20 10:08:30;;;;;;;62.20;43.20;;;;;;;3.79;61.96;100873.84;106853;1297;22000;-77
2022/12/20 10:11:44;;;;;;;67.60;44.20;;;;;;;3.78;61.72;100864.90;106947;1295;21969;-79
2022/12/20 10:15:00;;;;;;;61.40;41.60;;;;;;;3.71;61.66;100866.46;106827;1295;21971;-79
2022/12/20 10:18:06;;;;;;;55.00;41.20;;;;;;;3.75;62.07;100858.87;106927;1295;22045;-79
2022/12/20 10:20:56;;;;;;;57.90;41.50;;;;;;;3.79;61.66;100853.70;107008;1297;21959;-79
2022/12/20 10:24:01;;;;;;;57.30;41.00;;;;;;;3.80;61.52;100853.36;107274;1291;23651;-78
2022/12/20 10:26:42;;;;;;;53.70;39.30;;;;;;;3.80;61.39;100853.70;107732;1283;22348;-77
2022/12/20 10:29:21;;;;;;;56.00;39.50;;;;;;;3.81;61.57;100850.60;107603;1288;22015;-79
2022/12/20 10:32:11;;;;;;;52.70;39.90;;;;;;;3.89;61.82;100848.69;107594;1287;23592;-77
2022/12/20 10:35:13;;;;;;;61.10;43.60;;;;;;;4.02;62.03;100836.77;107395;1294;21969;-78
2022/12/20 10:38:06;;;;;;;66.80;49.40;;;;;;;4.21;62.03;100831.89;106872;1297;22035;-79
2022/12/20 10:41:01;;;;;;;53.80;40.10;;;;;;;4.43;62.03;100829.04;106813;1297;23765;-77
2022/12/20 10:44:26;;;;;;;60.60;43.10;;;;;;;4.61;61.65;100823.59;106677;1297;23111;-78
2022/12/20 10:47:00;;;;;;;56.20;40.80;;;;;;;4.80;61.21;100819.52;106804;1297;23007;-77
2022/12/20 10:49:41;;;;;;;63.20;46.00;;;;;;;4.96;60.89;100821.64;106954;1298;22428;-78
2022/12/20 10:52:16;;;;;;;60.70;44.20;;;;;;;5.21;60.94;100820.23;106621;1297;23048;-79
2022/12/20 10:54:52;;;;;;;75.00;53.30;;;;;;;5.52;60.58;100819.29;106738;1297;21978;-80
2022/12/20 10:57:32;;;;;;;74.50;55.00;;;;;;;5.83;60.62;100823.29;107137;1297;23056;-81
2022/12/20 11:00:28;;;;;;;58.50;45.00;;;;;;;6.08;59.91;100834.44;107141;1297;22016;-81
2022/12/20 11:03:24;;;;;;;56.10;42.10;;;;;;;6.18;58.87;100844.36;107328;1294;23714;-81
2022/12/20 11:06:16;;;;;;;55.80;42.70;;;;;;;6.15;58.24;100845.94;107481;1294;23860;-82
2022/12/20 11:12:06;;;;;;;53.80;44.10;;;;;;;5.95;57.50;100855.64;107837;1291;23121;-80
2022/12/20 11:14:49;;;;;;;49.80;38.50;;;;;;;5.84;57.53;100855.06;107700;1289;23801;-83
2022/12/20 11:17:35;;;;;;;49.50;39.60;;;;;;;5.64;57.21;100852.65;107590;1291;21952;-80
2022/12/20 11:20:49;;;;;;;54.80;44.80;;;;;;;5.51;57.64;100852.78;107241;1291;22733;-81
2022/12/20 11:24:02;;;;;;;69.30;53.60;;;;;;;5.33;57.72;100857.77;107676;1291;21963;-78
2022/12/20 11:26:54;;;;;;;79.90;59.50;;;;;;;5.23;57.97;100868.19;107181;1291;23762;-80
2022/12/20 11:30:00;;;;;;;65.20;48.80;;;;;;;5.14;57.92;100871.03;107488;1291;21965;-77
2022/12/20 11:33:08;;;;;;;68.70;51.60;;;;;;;5.02;58.25;100870.25;106393;1303;22829;-80
2022/12/20 11:36:51;;;;;;;71.10;52.40;;;;;;;4.88;58.51;100861.35;107275;1294;23036;-79
2022/12/20 11:40:04;;;;;;;72.80;54.80;;;;;;;4.80;58.67;100855.90;106565;1300;21966;-79
2022/12/20 11:43:20;;;;;;;58.80;45.90;;;;;;;4.74;58.72;100848.52;107027;1298;22286;-80
2022/12/20 11:46:32;;;;;;;57.00;44.00;;;;;;;4.67;58.93;100837.34;106800;1291;21981;-79
2022/12/20 11:49:34;;;;;;;;;;;;;;;4.63;59.22;100830.31;106972;1297;21973;-79
2022/12/20 11:52:59;;;;;;;64.60;47.80;;;;;;;4.54;59.36;100829.66;107256;1294;23947;-79
2022/12/20 11:55:42;;;;;;;65.90;52.20;;;;;;;4.53;59.79;100824.33;106559;1300;22008;-78
2022/12/20 11:58:51;;;;;;;86.50;64.50;;;;;;;4.57;59.84;100822.59;106529;1296;22035;-78
2022/12/20 12:01:37;;;;;;;74.90;54.90;;;;;;;4.55;59.86;100818.63;106954;1297;23798;-82
2022/12/20 12:04:33;;;;;;;65.50;50.00;;;;;;;4.58;60.10;100809.48;106937;1290;23064;-80
2022/12/20 12:07:40;;;;;;;59.60;44.40;;;;;;;4.65;60.38;100803.91;106976;1297;22034;-78
2022/12/20 12:10:39;;;;;;;;;;;;;;;4.65;60.08;100797.38;106759;1295;23726;-78
2022/12/20 12:13:22;;;;;;;54.10;41.70;;;;;;;4.60;60.24;100792.23;106946;1292;21980;-81
2022/12/20 12:16:34;;;;;;;58.30;45.50;;;;;;;4.64;60.12;100787.55;107085;1295;23624;-77
2022/12/20 12:19:10;;;;;;;66.80;47.30;;;;;;;4.65;60.05;100782.19;107044;1297;21955;-77
2022/12/20 12:22:11;;;;;;;55.30;41.50;;;;;;;4.65;60.09;100776.84;106979;1297;22327;-78
2022/12/20 12:25:02;;;;;;;55.70;44.60;;;;;;;4.65;60.07;100779.09;106935;1297;21986;-77
2022/12/20 12:27:38;;;;;;;70.50;52.00;;;;;;;4.62;60.03;100776.01;107455;1291;23019;-78